• Join FlightAware (Why Join?)
  • Login
  • US Flag 
06:15AM EDT


 

Airport Tracker/Info


-or-


 

Live Flight TrackerFlight Track Log ✈ N5920V ✈ 17-Jun-2013 ✈ KOMN - KAPF

Flight Track Log - Related Links

Times and Time Zones

All times are in EDT time to prevent confusion due to time zone crossing. See the N5920V flight status page for this flight to view local times or setup timezone preferences in your user account.

Time Position Orientation Groundspeed Altitude Reporting Facility
EDT Latitude Longitude Course Direction KTS MPH feet Rate Location/Type
07:44PM 28.8667 -81.0167 180° South 145 167 6,500  Level Orlando TRACON
07:45PM 28.8333 -81.0167 180° South 140 161 6,500  Level Orlando TRACON
07:46PM 28.7833 -81.0000 164° South 141 162 6,500  Level Orlando TRACON
07:47PM 28.7500 -81.0000 180° South 139 160 6,500  Level Orlando TRACON
07:48PM 28.7167 -81.0000 180° South 140 161 6,600  Climbing Orlando TRACON
07:49PM 28.6667 -81.0000 180° South 143 165 6,500 -60 Descending Orlando TRACON
07:50PM 28.6333 -81.0000 180° South 144 166 6,500  Level Orlando TRACON
07:51PM 28.5833 -80.9833 164° South 141 162 6,500  Level Orlando TRACON
07:52PM 28.5500 -80.9833 180° South 141 162 6,500 180 Level Orlando TRACON
07:53PM 28.5167 -80.9833 180° South 119 137 6,900 540 Climbing Orlando TRACON
07:54PM 28.4833 -80.9667 156° South 109 125 7,600 540 Climbing Orlando TRACON
07:56PM 28.4500 -80.9667 180° South 118 136 8,200 360 Climbing Orlando TRACON
07:57PM 28.4167 -80.9667 180° South 131 151 8,500 180 Climbing Orlando TRACON
07:58PM 28.3833 -80.9500 156° South 140 161 8,600  Climbing Orlando TRACON
07:58PM 28.3500 -80.9500 180° South 144 166 8,600 -60 Level Orlando TRACON
07:59PM 28.3167 -80.9500 180° South 139 160 8,500 -60 Descending Orlando TRACON
08:01PM 28.2833 -81.0000 233° Southwest 144 166 8,500  Level Orlando TRACON
08:01PM 28.2500 -81.0167 204° Southwest 142 163 8,500 -60 Level Orlando TRACON
08:02PM 28.2333 -81.0500 240° Southwest 144 166 8,400 -60 Descending Orlando TRACON
08:03PM 28.2000 -81.0833 221° Southwest 140 161 8,400  Level Orlando TRACON
08:05PM 28.1667 -81.1333 233° Southwest 136 157 8,500 60 Climbing Orlando TRACON
08:06PM 28.1314 -81.1792 229° Southwest 137 158 8,600  Climbing Miami Center
08:07PM 28.1033 -81.2111 225° Southwest 142 163 8,600  Level Miami Center
08:08PM 28.0814 -81.2456 234° Southwest 142 163 8,600  Level Miami Center
08:09PM 28.0614 -81.2822 238° Southwest 142 163 8,600 -60 Level Miami Center
08:10PM 28.0436 -81.3192 241° Southwest 142 163 8,500  Descending Miami Center
08:11PM 28.0172 -81.3583 233° Southwest 147 169 8,600  Climbing Miami Center
08:12PM 27.9933 -81.3925 232° Southwest 147 169 8,500 -60 Descending Miami Center
08:13PM 27.9611 -81.4194 216° Southwest 147 169 8,500  Level Miami Center
08:14PM 27.9233 -81.4297 194° South 140 161 8,500 180 Level Miami Center
08:15PM 27.8872 -81.4469 203° Southwest 140 161 8,900 480 Climbing Miami Center
08:16PM 27.8578 -81.4575 198° South 133 153 9,500 480 Climbing Miami Center
08:17PM 27.8239 -81.4703 198° South 127 146 9,900 420 Climbing Miami Center
08:18PM 27.7942 -81.4856 204° Southwest 127 146 10,400 300 Climbing Miami Center
08:19PM 27.7600 -81.5075 210° Southwest 133 153 10,500 60 Climbing Miami Center
08:20PM 27.7222 -81.5200 196° South 138 159 10,600  Climbing Miami Center
08:21PM 27.6822 -81.5278 190° South 143 165 10,500  Descending Miami Center
08:22PM 27.6403 -81.5331 186° South 148 170 10,600  Climbing Miami Center
08:23PM 27.6006 -81.5339 181° South 148 170 10,600  Level Miami Center
08:24PM 27.5586 -81.5417 189° South 148 170 10,700  Climbing Miami Center
08:25PM 27.5167 -81.5492 189° South 148 170 10,700 -60 Level Miami Center
08:26PM 27.4767 -81.5592 193° South 148 170 10,600 -60 Descending Miami Center
08:27PM 27.4344 -81.5692 192° South 148 170 10,600  Level Miami Center
08:28PM 27.3964 -81.5839 199° South 148 170 10,600  Level Miami Center
08:29PM 27.3583 -81.6058 207° Southwest 148 170 10,600 -60 Level Miami Center
08:30PM 27.3239 -81.6325 215° Southwest 159 183 10,500 -60 Descending Miami Center
08:31PM 27.2878 -81.6567 211° Southwest 159 183 10,500 -60 Level Miami Center
08:32PM 27.2536 -81.6808 212° Southwest 159 183 10,400  Descending Miami Center
08:33PM 27.2175 -81.6981 203° Southwest 152 175 10,500  Climbing Miami Center
08:34PM 27.1853 -81.7247 216° Southwest 152 175 10,500  Level Miami Center
08:35PM 27.1592 -81.7586 229° Southwest 152 175 10,500  Level Miami Center
08:36PM 27.1308 -81.7900 225° Southwest 147 169 10,500  Level Miami Center
08:37PM 27.1006 -81.8239 225° Southwest 147 169 10,500  Level Miami Center
08:38PM 27.0703 -81.8550 222° Southwest 147 169 10,600  Climbing Miami Center
08:39PM 27.0397 -81.8864 222° Southwest 147 169 10,600  Level Miami Center
08:40PM 27.0094 -81.9200 225° Southwest 147 169 10,600  Level Miami Center
08:41PM 26.9831 -81.9564 231° Southwest 147 169 10,600 -60 Level Miami Center
08:42PM 26.9569 -81.9878 227° Southwest 147 169 10,500 -300 Descending Miami Center
08:43PM 26.9222 -82.0233 222° Southwest 154 177 10,100 -300 Descending Miami Center
08:44PM 26.8806 -82.0239 181° South 159 183 10,000 -300 Descending Miami Center
08:45PM 26.8375 -82.0058 159° South 144 166 9,600 -480 Descending Miami Center
08:46PM 26.7961 -81.9900 161° South 154 177 9,100 -480 Descending Miami Center
08:47PM 26.7575 -81.9603 145° Southeast 165 190 8,700 -480 Descending Miami Center
08:48PM 26.7164 -81.9400 156° South 165 190 8,200 -600 Descending Miami Center
08:49PM 26.6711 -81.9242 163° South 170 196 7,600 -600 Descending Miami Center
08:50PM 26.6297 -81.9153 169° South 170 196 7,100 -600 Descending Miami Center
08:51PM 26.5864 -81.9042 163° South 165 190 6,500 -720 Descending Miami Center
08:52PM 26.5490 -81.9047 163° South  Level FlightAware Approximate
08:52PM 26.5428 -81.8906 164° South 160 184 5,700  Level Miami Center
08:55PM 26.4065 -81.8475 164° South  Level FlightAware Approximate
09:02PM 26.1500 -81.7667 163° South  Level FlightAware Approximate
09:03PM 26.1524 -81.7756 163° South  Level Estimated
09:04PM 26.1524 -81.7756 163° South  Level Estimated
09:05PM 26.1524 -81.7756 163° South  Level Estimated
09:06PM 26.1524 -81.7756 163° South  Level Estimated
09:07PM 26.1524 -81.7756 163° South  Level Estimated
09:08PM 26.1524 -81.7756 163° South  Level Estimated
09:09PM 26.1524 -81.7756 163° South  Level Estimated
09:10PM 26.1524 -81.7756 163° South  Level Estimated
09:11PM 26.1524 -81.7756 163° South  Level Estimated
09:12PM 26.1524 -81.7756 163° South  Level Estimated